OIZI  Iran Shahr Airport

Add Bookmark

Iran

Status
Operational
Latitude Longitude
27° 14' 9" N 60° 43' 12" E
27.236099 60.720001
Local (DST + 5) UTC (GMT + 4)
Oct 26, 2014 02:17 Oct 25, 2014 22:47
Sunrise-Sunset Local UTC
Begin Civil Twilight 05:08 01:38
Sunrise 05:32 02:02
Sunset 04:49 13:19
End Civil Twilight 05:13 13:43

Current Weather

METAR Observed VFR
OIZI 252100Z 25004KT CAVOK 25/07 Q1014 Sat, Oct 25, 2014 @ 21:00 UTC
(1 Hour, 47 Minutes ago)
Visual Flight Rules
Wind Visibility Clouds Conditions
250° at 4 knots (7 kph) 10 km or more
  • Clear skies
  • No significant weather
Temperatures Readings Precipitation
Current Temp 25°C (77°F)
Dewpoint 7°C (45°F)
Humidity 32%
Altimeter 29.94"Hg
Sea Level Pressure 1014mb
Field Elevation 1938.98'
None Recorded

24 Hour Weather History

Loading
-

24 Hour Weather Graphs

Loading
-

CheckWX.com is intended as a tool to help pilots better visualize weather data. It is not intended as a substitute for an official weather briefing obtained from a Flight Service Station. CheckWX.com does not meet the FAA requirements for an official pre-flight weather briefing. Therefore, it's important that pilots still call and obtain an official FSS pre-flight weather briefing.